Time;durP1;ratioP1;P1;durP2;ratioP2;P2;SDS_P1;SDS_P2;PMS_P1;PMS_P2;Temp;Humidity;BMP_temperature;BMP_pressure;BME280_temperature;BME280_humidity;BME280_pressure;Samples;Min_cycle;Max_cycle;Signal;HPM_P1;HPM_P2
2023/06/15 00:00:49;;;;;;;5.22;3.33;;;;;;;18.29;58.65;101214.09;4955377;29;20181;-45
2023/06/15 00:03:18;;;;;;;6.05;3.03;;;;;;;18.24;58.82;101220.03;4955695;29;20054;-46
2023/06/15 00:05:46;;;;;;;10.52;3.55;;;;;;;18.20;59.10;101222.00;4955528;29;20117;-46
2023/06/15 00:08:12;;;;;;;6.10;3.20;;;;;;;18.19;59.17;101220.38;4955592;29;20082;-46
2023/06/15 00:10:39;;;;;;;6.10;3.22;;;;;;;18.19;59.18;101214.75;4954581;29;20577;-45
2023/06/15 00:13:06;;;;;;;7.38;4.07;;;;;;;18.16;59.26;101215.56;4955335;29;20106;-47
2023/06/15 00:15:33;;;;;;;8.05;3.80;;;;;;;18.13;59.42;101214.34;4954055;29;20405;-46
2023/06/15 00:18:01;;;;;;;8.00;4.63;;;;;;;18.08;59.59;101211.84;4955355;29;20098;-46
2023/06/15 00:20:28;;;;;;;11.45;4.10;;;;;;;18.06;59.71;101214.25;4953938;29;20454;-46
2023/06/15 00:22:56;;;;;;;8.80;4.82;;;;;;;18.04;59.78;101215.81;4955376;29;20062;-46
2023/06/15 00:25:23;;;;;;;9.30;4.68;;;;;;;18.05;59.80;101223.03;4955098;29;20098;-45
2023/06/15 00:27:50;;;;;;;11.52;4.85;;;;;;;18.02;59.91;101218.22;4954370;29;20047;-45
2023/06/15 00:30:17;;;;;;;6.72;4.13;;;;;;;18.01;60.05;101216.59;4955344;29;20094;-46
2023/06/15 00:32:44;;;;;;;6.45;4.43;;;;;;;17.97;60.16;101212.94;4955138;29;20098;-45
2023/06/15 00:35:11;;;;;;;7.72;4.43;;;;;;;17.93;60.44;101212.09;4954730;29;20047;-47
2023/06/15 00:37:38;;;;;;;7.05;4.20;;;;;;;17.86;60.61;101223.22;4954944;29;20569;-46
2023/06/15 00:40:06;;;;;;;8.23;5.07;;;;;;;17.83;60.75;101215.59;4954845;29;20556;-47
2023/06/15 00:42:33;;;;;;;6.13;3.90;;;;;;;17.81;60.77;101215.97;4954629;28;20055;-46
2023/06/15 00:45:00;;;;;;;12.43;6.38;;;;;;;17.78;60.87;101221.53;4952323;29;20098;-45
2023/06/15 00:47:27;;;;;;;7.38;4.38;;;;;;;17.77;60.95;101212.31;4954918;29;20051;-46
2023/06/15 00:49:54;;;;;;;7.68;4.72;;;;;;;17.74;60.92;101210.28;4953420;29;20039;-48
2023/06/15 00:52:21;;;;;;;28.10;19.95;;;;;;;17.72;60.91;101214.66;4954917;29;20288;-46
2023/06/15 00:54:49;;;;;;;35.70;23.63;;;;;;;17.70;61.12;101211.44;4954491;29;20708;-45
2023/06/15 00:57:18;;;;;;;38.72;23.73;;;;;;;17.65;61.12;101212.59;4954457;29;20055;-45
2023/06/15 00:59:45;;;;;;;21.63;12.63;;;;;;;17.62;61.18;101214.16;4953566;29;20062;-46
2023/06/15 01:02:12;;;;;;;11.43;7.75;;;;;;;17.58;61.23;101216.09;4954459;29;20043;-45
2023/06/15 01:04:40;;;;;;;11.25;5.00;;;;;;;17.58;61.30;101207.69;4954339;29;20116;-45
2023/06/15 01:07:10;;;;;;;8.27;4.97;;;;;;;17.55;61.38;101214.06;4954282;29;20364;-45
2023/06/15 01:09:41;;;;;;;8.00;4.68;;;;;;;17.49;61.49;101214.75;4954192;29;20141;-45
2023/06/15 01:12:14;;;;;;;8.35;4.28;;;;;;;17.45;61.71;101208.28;4954513;29;20078;-45
2023/06/15 01:14:41;;;;;;;6.35;4.05;;;;;;;17.41;61.70;101208.25;4951724;29;20142;-46
2023/06/15 01:17:23;;;;;;;7.63;4.68;;;;;;;17.39;61.75;101209.84;4953087;29;20051;-45
2023/06/15 01:19:58;;;;;;;6.93;3.97;;;;;;;17.36;61.78;101214.19;4952740;29;20142;-46
2023/06/15 01:22:58;;;;;;;8.32;4.47;;;;;;;17.34;61.82;101212.97;4953305;29;20445;-47
2023/06/15 01:25:44;;;;;;;9.55;4.80;;;;;;;17.30;61.71;101207.31;4953767;28;20077;-45
2023/06/15 01:28:12;;;;;;;6.75;3.92;;;;;;;17.26;61.79;101217.63;4953967;29;20039;-46
2023/06/15 01:30:43;;;;;;;6.40;4.47;;;;;;;17.25;62.14;101216.03;4953984;29;20043;-46
2023/06/15 01:33:11;;;;;;;7.68;4.22;;;;;;;17.23;61.89;101212.81;4954209;29;20422;-47
2023/06/15 01:35:39;;;;;;;6.80;4.32;;;;;;;17.18;62.11;101213.16;4935658;29;20114;-47
2023/06/15 01:38:05;;;;;;;6.35;4.88;;;;;;;17.13;62.31;101223.88;4953878;29;20094;-46
2023/06/15 01:40:36;;;;;;;8.90;4.28;;;;;;;17.07;62.39;101217.78;4953613;29;20043;-47
2023/06/15 01:43:07;;;;;;;11.25;4.70;;;;;;;17.00;62.79;101212.88;4953482;29;20493;-46
2023/06/15 01:45:35;;;;;;;8.35;4.57;;;;;;;16.97;62.73;101221.25;4954262;29;20051;-45
2023/06/15 01:48:02;;;;;;;7.60;5.25;;;;;;;16.93;62.82;101215.56;4953530;29;20051;-45
2023/06/15 01:50:32;;;;;;;7.35;5.63;;;;;;;16.95;62.83;101212.41;4952684;29;20051;-46
2023/06/15 01:52:59;;;;;;;9.10;5.97;;;;;;;16.95;62.99;101215.19;4953059;29;20077;-46
2023/06/15 01:55:26;;;;;;;14.13;6.95;;;;;;;16.93;62.96;101217.56;4953807;29;20039;-46
2023/06/15 01:57:53;;;;;;;12.70;7.05;;;;;;;16.93;63.06;101217.56;4953507;29;20050;-46
2023/06/15 02:00:22;;;;;;;10.98;6.82;;;;;;;16.91;63.06;101222.72;4953294;29;20485;-45
2023/06/15 02:02:50;;;;;;;10.27;6.28;;;;;;;16.88;63.16;101212.28;4950440;29;20110;-45
2023/06/15 02:05:18;;;;;;;9.63;6.88;;;;;;;16.83;63.32;101226.59;4951902;29;20053;-48
2023/06/15 02:07:46;;;;;;;9.65;6.43;;;;;;;16.80;63.50;101230.97;4952641;29;20050;-45
2023/06/15 02:10:13;;;;;;;9.93;6.82;;;;;;;16.81;63.34;101223.38;4953308;29;20087;-46
2023/06/15 02:12:40;;;;;;;10.73;7.30;;;;;;;16.79;63.57;101220.13;4953282;29;20047;-47
2023/06/15 02:15:10;;;;;;;10.52;6.80;;;;;;;16.79;63.60;101214.53;4953640;29;20089;-45
2023/06/15 02:17:41;;;;;;;14.25;6.80;;;;;;;16.80;63.46;101216.16;4953220;29;20067;-46
2023/06/15 02:20:09;;;;;;;12.10;7.32;;;;;;;16.73;63.72;101216.06;4951638;28;20102;-47
2023/06/15 02:22:36;;;;;;;13.25;7.68;;;;;;;16.64;64.00;101212.72;4953271;29;20051;-47
2023/06/15 02:25:04;;;;;;;10.65;7.75;;;;;;;16.58;64.14;101228.19;4952269;29;20054;-47
2023/06/15 02:27:31;;;;;;;13.57;8.35;;;;;;;16.53;64.42;101217.31;4950983;29;20078;-48
2023/06/15 02:29:58;;;;;;;13.10;8.55;;;;;;;16.50;64.56;101220.81;4952527;29;20482;-45
2023/06/15 02:32:31;;;;;;;17.77;10.77;;;;;;;16.47;64.63;101222.38;4953001;29;20557;-47
2023/06/15 02:34:58;;;;;;;15.63;8.77;;;;;;;16.45;64.67;101214.38;4935820;29;20134;-45
2023/06/15 02:37:25;;;;;;;20.58;13.23;;;;;;;16.42;64.86;101217.09;4952665;29;20055;-45
2023/06/15 02:39:52;;;;;;;14.77;10.18;;;;;;;16.38;64.99;101216.25;4952837;29;20425;-46
2023/06/15 02:42:18;;;;;;;12.90;9.20;;;;;;;16.35;65.19;101215.00;4946759;29;20047;-45
2023/06/15 02:44:46;;;;;;;9.40;8.02;;;;;;;16.35;65.32;101222.56;4951671;29;20628;-45
2023/06/15 02:47:13;;;;;;;11.55;7.95;;;;;;;16.35;65.22;101217.81;4953288;29;20078;-45
2023/06/15 02:49:40;;;;;;;12.88;8.45;;;;;;;16.32;65.25;101224.13;4933949;29;20147;-47
2023/06/15 02:52:08;;;;;;;13.15;9.20;;;;;;;16.28;65.52;101217.66;4952967;29;20106;-47
2023/06/15 02:54:36;;;;;;;18.13;10.73;;;;;;;16.25;65.69;101223.19;4952815;29;20055;-46
2023/06/15 02:57:06;;;;;;;17.20;12.05;;;;;;;16.23;65.93;101217.97;4950632;29;20528;-45
2023/06/15 02:59:34;;;;;;;15.63;10.90;;;;;;;16.22;65.71;101224.75;4952103;29;20049;-45
2023/06/15 03:02:04;;;;;;;20.38;14.25;;;;;;;16.19;65.90;101228.28;4984224;23;20067;-46
2023/06/15 03:04:32;;;;;;;22.70;13.15;;;;;;;16.14;66.11;101225.00;4948111;28;20042;-45
2023/06/15 03:06:59;;;;;;;14.25;9.43;;;;;;;16.14;66.20;101230.56;4943395;28;20047;-45
2023/06/15 03:09:26;;;;;;;13.48;9.27;;;;;;;16.15;66.26;101227.41;4952779;29;20398;-46
2023/06/15 03:11:54;;;;;;;14.05;8.90;;;;;;;16.16;66.18;101231.81;4952839;29;20079;-46
2023/06/15 03:14:22;;;;;;;15.02;8.45;;;;;;;16.15;66.34;101230.19;4952404;28;20055;-46
2023/06/15 03:16:51;;;;;;;12.90;8.75;;;;;;;16.14;66.33;101234.19;4951950;29;20039;-46
2023/06/15 03:19:18;;;;;;;10.77;7.32;;;;;;;16.14;66.36;101223.00;4952664;29;20039;-50
2023/06/15 03:21:47;;;;;;;9.23;7.35;;;;;;;16.09;66.62;101217.72;4952281;29;20405;-45
2023/06/15 03:24:16;;;;;;;13.77;7.05;;;;;;;16.08;66.68;101216.09;4952479;29;20031;-46
2023/06/15 03:26:43;;;;;;;14.70;7.68;;;;;;;16.07;66.70;101222.06;4952535;29;20079;-46
2023/06/15 03:29:10;;;;;;;12.23;7.28;;;;;;;16.04;66.65;101220.84;4952632;29;20040;-47
2023/06/15 03:31:40;;;;;;;14.00;7.97;;;;;;;16.04;66.76;101226.41;4952751;29;20047;-47
2023/06/15 03:34:08;;;;;;;15.23;7.97;;;;;;;16.02;66.71;101220.38;4950396;28;20189;-45
2023/06/15 03:36:35;;;;;;;12.18;7.35;;;;;;;15.99;66.80;101221.09;4945940;28;20047;-46
2023/06/15 03:39:03;;;;;;;11.32;7.40;;;;;;;15.98;66.88;101216.72;4952493;29;20086;-45
2023/06/15 03:41:30;;;;;;;16.65;7.88;;;;;;;15.96;67.04;101223.84;4952289;28;20063;-46
2023/06/15 03:43:57;;;;;;;11.25;7.15;;;;;;;15.90;67.25;101217.75;4952431;29;20142;-46
2023/06/15 03:46:23;;;;;;;8.75;7.30;;;;;;;15.87;67.25;101218.50;4952141;29;20420;-46
2023/06/15 03:48:50;;;;;;;14.02;7.22;;;;;;;15.83;67.47;101212.03;4953348;28;20499;-45
2023/06/15 03:51:17;;;;;;;14.57;6.82;;;;;;;15.82;67.53;101218.78;4955096;28;20047;-45
2023/06/15 03:53:44;;;;;;;9.55;6.78;;;;;;;15.84;67.63;101210.84;4956061;29;20509;-45
2023/06/15 03:56:12;;;;;;;8.93;6.20;;;;;;;15.82;67.61;101210.41;4955637;29;20102;-46
2023/06/15 03:58:39;;;;;;;9.50;7.18;;;;;;;15.78;67.75;101217.91;4955745;29;20122;-45
2023/06/15 04:01:06;;;;;;;6.93;5.68;;;;;;;15.75;67.75;101218.66;4955477;29;20059;-46
2023/06/15 04:03:36;;;;;;;8.68;6.00;;;;;;;15.74;67.53;101217.84;4955570;29;20047;-46
2023/06/15 04:06:04;;;;;;;9.15;5.85;;;;;;;15.76;67.32;101223.06;4955306;29;20186;-46
2023/06/15 04:08:32;;;;;;;10.60;6.60;;;;;;;15.77;67.32;101224.69;4948663;28;20043;-46
2023/06/15 04:10:59;;;;;;;10.45;6.25;;;;;;;15.74;67.06;101217.03;4955121;29;20047;-45
2023/06/15 04:13:26;;;;;;;8.02;5.88;;;;;;;15.73;67.13;101223.78;4955643;29;20464;-47
2023/06/15 04:15:53;;;;;;;11.52;7.80;;;;;;;15.71;67.30;101218.59;4955216;29;20066;-46
2023/06/15 04:18:22;;;;;;;11.02;7.65;;;;;;;15.73;67.34;101223.78;4955246;29;20128;-46
2023/06/15 04:20:50;;;;;;;7.55;5.18;;;;;;;15.74;67.22;101217.84;4955531;29;20139;-48
2023/06/15 04:23:16;;;;;;;13.07;6.55;;;;;;;15.74;67.38;101214.25;4955627;29;20110;-46
2023/06/15 04:25:43;;;;;;;9.88;6.45;;;;;;;15.72;67.48;101219.41;4954138;29;20389;-45
2023/06/15 04:28:10;;;;;;;14.13;6.40;;;;;;;15.72;67.59;101217.41;4955218;29;20057;-47
2023/06/15 04:30:40;;;;;;;9.93;6.63;;;;;;;15.73;67.51;101219.03;4953905;28;20359;-45
2023/06/15 04:33:12;;;;;;;10.07;6.13;;;;;;;15.80;67.36;101223.94;4955307;29;20106;-46
2023/06/15 04:35:46;;;;;;;10.13;6.75;;;;;;;15.78;67.55;101224.31;4955310;29;20035;-45
2023/06/15 04:38:13;;;;;;;10.40;6.55;;;;;;;15.74;67.82;101229.03;4937416;29;20110;-45
2023/06/15 04:40:41;;;;;;;10.15;6.80;;;;;;;15.74;67.63;101236.59;4953624;29;20051;-46
2023/06/15 04:43:08;;;;;;;11.68;6.10;;;;;;;15.66;67.90;101234.81;4949896;29;20158;-47
2023/06/15 04:45:35;;;;;;;13.13;5.88;;;;;;;15.64;67.90;101228.81;4955257;29;20051;-46
2023/06/15 04:48:03;;;;;;;10.20;6.05;;;;;;;15.68;67.91;101244.44;4954676;29;20051;-45
2023/06/15 04:50:30;;;;;;;10.77;6.03;;;;;;;15.72;67.90;101238.94;4954814;29;20043;-46
2023/06/15 04:52:57;;;;;;;9.75;6.50;;;;;;;15.76;67.84;101245.38;4954646;29;20074;-46
2023/06/15 04:55:24;;;;;;;8.93;6.03;;;;;;;15.75;67.87;101246.59;4955044;29;20051;-46
2023/06/15 04:57:51;;;;;;;9.13;6.03;;;;;;;15.80;67.77;101241.50;4951917;29;20044;-45
2023/06/15 05:00:18;;;;;;;9.25;5.30;;;;;;;15.85;67.84;101248.78;4925954;29;20090;-46
2023/06/15 05:02:45;;;;;;;11.65;6.95;;;;;;;15.84;67.96;101244.34;4954171;29;20047;-46
2023/06/15 05:05:12;;;;;;;10.65;6.13;;;;;;;15.87;68.05;101262.34;4954929;28;20134;-45
2023/06/15 05:07:39;;;;;;;9.45;5.78;;;;;;;15.86;68.12;101258.75;4954355;29;20059;-45
2023/06/15 05:10:07;;;;;;;11.88;6.90;;;;;;;15.87;68.11;101262.34;4954365;29;20050;-46
2023/06/15 05:12:34;;;;;;;11.15;6.53;;;;;;;15.87;68.23;101257.59;4954354;29;20433;-47
2023/06/15 05:15:00;;;;;;;7.50;5.80;;;;;;;15.92;68.30;101254.50;4943915;29;20457;-45
2023/06/15 05:17:27;;;;;;;7.57;5.35;;;;;;;15.95;68.14;101258.53;4954376;29;20028;-45
2023/06/15 05:19:54;;;;;;;8.13;6.10;;;;;;;16.00;68.20;101270.22;4954327;29;20106;-46
2023/06/15 05:22:21;;;;;;;11.57;6.82;;;;;;;16.08;67.98;101258.00;4954098;29;20047;-46
2023/06/15 05:24:48;;;;;;;19.13;8.65;;;;;;;16.13;67.92;101260.50;4954154;29;20055;-45
2023/06/15 05:27:14;;;;;;;9.30;5.32;;;;;;;16.14;68.02;101259.31;4954242;29;20090;-45
2023/06/15 05:29:41;;;;;;;11.93;5.90;;;;;;;16.21;67.96;101273.41;4953983;29;20054;-45
2023/06/15 05:32:08;;;;;;;7.65;6.05;;;;;;;16.33;67.65;101259.28;4952702;29;20093;-46
2023/06/15 05:34:35;;;;;;;11.15;6.53;;;;;;;16.35;67.52;101251.34;4953929;29;20086;-46
2023/06/15 05:37:02;;;;;;;10.38;6.07;;;;;;;16.43;67.30;101257.84;4953976;29;20100;-45
2023/06/15 05:39:29;;;;;;;11.70;6.03;;;;;;;16.49;67.16;101267.56;4936676;29;20084;-45
2023/06/15 05:41:56;;;;;;;9.30;5.22;;;;;;;16.55;67.17;101265.28;4953364;29;20047;-46
2023/06/15 05:44:23;;;;;;;8.32;5.82;;;;;;;16.65;66.79;101270.25;4953750;29;20059;-45
2023/06/15 05:46:50;;;;;;;10.00;6.72;;;;;;;16.73;66.49;101260.81;4953805;29;20042;-45
2023/06/15 05:49:17;;;;;;;8.15;5.88;;;;;;;16.78;66.40;101282.84;4952720;29;20043;-45
2023/06/15 05:51:44;;;;;;;10.05;5.85;;;;;;;16.83;66.14;101282.53;4953408;29;20396;-48
2023/06/15 05:54:11;;;;;;;9.35;6.05;;;;;;;16.87;66.05;101272.19;4953425;29;20493;-46
2023/06/15 05:56:38;;;;;;;10.05;6.70;;;;;;;16.97;65.74;101266.00;4953632;29;20050;-46
2023/06/15 05:59:05;;;;;;;9.73;6.00;;;;;;;17.01;65.20;101272.44;4953665;29;20078;-45
2023/06/15 06:01:49;;;;;;;10.80;6.60;;;;;;;17.09;65.13;101268.56;4952248;29;20058;-47
2023/06/15 06:04:16;;;;;;;15.35;7.18;;;;;;;17.15;64.87;101272.66;4952419;29;20102;-46
2023/06/15 06:06:42;;;;;;;8.75;6.80;;;;;;;17.24;64.35;101275.16;4951881;29;20050;-46
2023/06/15 06:09:09;;;;;;;11.70;5.78;;;;;;;17.31;64.11;101264.91;4952898;29;20057;-46
2023/06/15 06:11:36;;;;;;;10.40;6.18;;;;;;;17.39;63.85;101261.03;4951787;28;20520;-47
2023/06/15 06:14:03;;;;;;;11.68;5.97;;;;;;;17.49;63.76;101270.75;4951951;29;20237;-46
2023/06/15 06:16:30;;;;;;;7.93;6.28;;;;;;;17.53;63.71;101264.03;4952670;29;20046;-46
2023/06/15 06:18:57;;;;;;;7.40;5.75;;;;;;;17.59;63.69;101264.50;4935227;29;20043;-47
2023/06/15 06:21:23;;;;;;;12.52;6.53;;;;;;;17.69;63.51;101274.22;4952557;29;20425;-46
2023/06/15 06:23:50;;;;;;;13.30;6.80;;;;;;;17.75;63.05;101267.09;4951188;29;20066;-45
2023/06/15 06:26:17;;;;;;;11.82;6.07;;;;;;;17.85;62.87;101267.22;4950633;28;20138;-46
2023/06/15 06:28:48;;;;;;;7.90;6.35;;;;;;;17.93;62.52;101266.13;4951417;28;20493;-47
2023/06/15 06:31:15;;;;;;;10.38;5.97;;;;;;;17.96;62.31;101270.16;4952585;29;20043;-46
2023/06/15 06:33:42;;;;;;;9.45;5.72;;;;;;;17.99;62.33;101278.63;4951347;28;20043;-48
2023/06/15 06:36:09;;;;;;;14.70;6.43;;;;;;;18.03;62.56;101278.66;4952144;29;20090;-46
2023/06/15 06:38:36;;;;;;;10.55;7.43;;;;;;;18.08;62.53;101270.69;4952238;29;20665;-47
2023/06/15 06:41:22;;;;;;;11.80;6.63;;;;;;;18.15;62.27;101276.41;4949560;28;20063;-47
2023/06/15 06:43:49;;;;;;;13.02;7.00;;;;;;;18.21;62.21;101279.66;4935359;29;20043;-46
2023/06/15 06:46:17;;;;;;;12.32;6.90;;;;;;;18.24;62.17;101279.69;4952048;29;20067;-46
2023/06/15 06:48:44;;;;;;;11.35;7.22;;;;;;;18.31;62.06;101283.75;4934648;29;20052;-47
2023/06/15 06:51:10;;;;;;;12.35;6.38;;;;;;;18.36;61.80;101281.44;4952029;29;20512;-48
2023/06/15 06:53:37;;;;;;;11.98;7.13;;;;;;;18.41;61.78;101283.88;4952495;29;20050;-47
2023/06/15 06:56:05;;;;;;;12.02;6.22;;;;;;;18.48;61.81;101289.56;4951904;29;20063;-46
2023/06/15 06:58:31;;;;;;;18.45;7.28;;;;;;;18.55;61.21;101291.66;4951152;29;20094;-45
2023/06/15 07:00:58;;;;;;;10.63;6.38;;;;;;;18.64;61.49;101286.53;4910123;29;1221611;-46
2023/06/15 07:03:25;;;;;;;14.82;6.13;;;;;;;18.76;61.06;101295.47;4934792;29;20047;-46
2023/06/15 07:05:52;;;;;;;10.73;6.07;;;;;;;18.84;60.72;101297.16;4952727;29;20054;-46
2023/06/15 07:08:20;;;;;;;11.48;5.68;;;;;;;18.95;60.13;101290.81;4952726;29;20040;-47
2023/06/15 07:10:48;;;;;;;10.50;6.63;;;;;;;19.05;59.76;101284.47;4952621;29;20051;-46
2023/06/15 07:13:15;;;;;;;13.00;6.03;;;;;;;19.17;59.49;101284.13;4952696;29;20070;-47
2023/06/15 07:15:41;;;;;;;14.25;6.10;;;;;;;19.30;59.28;101285.47;4950604;29;20130;-46
2023/06/15 07:18:08;;;;;;;13.43;6.63;;;;;;;19.40;59.24;101281.94;4935550;29;20532;-46
2023/06/15 07:20:35;;;;;;;12.35;8.07;;;;;;;19.52;59.08;101286.41;4952618;29;20141;-46
2023/06/15 07:23:02;;;;;;;11.38;7.75;;;;;;;19.65;59.28;101293.28;4952839;28;20036;-48
2023/06/15 07:25:29;;;;;;;12.77;7.78;;;;;;;19.78;59.83;101286.94;4956538;29;20051;-46
2023/06/15 07:27:55;;;;;;;15.60;8.70;;;;;;;19.92;60.08;101292.63;4956218;29;20110;-48
2023/06/15 07:30:22;;;;;;;12.90;8.45;;;;;;;20.14;59.55;101295.50;4955987;29;20446;-46
2023/06/15 07:32:49;;;;;;;12.10;8.32;;;;;;;20.34;59.43;101293.97;4952715;29;20055;-48
2023/06/15 07:35:18;;;;;;;14.35;8.70;;;;;;;20.49;59.51;101295.63;4954467;28;20702;-47
2023/06/15 07:37:45;;;;;;;10.05;7.55;;;;;;;20.69;59.42;101296.06;4956398;29;20043;-46
2023/06/15 07:40:12;;;;;;;12.38;8.65;;;;;;;20.90;59.45;101308.13;4953133;28;20118;-46
2023/06/15 07:42:39;;;;;;;15.63;9.07;;;;;;;21.18;58.91;101299.69;4954518;28;20054;-46
2023/06/15 07:45:06;;;;;;;13.25;9.07;;;;;;;21.49;58.22;101308.50;4955723;29;20047;-47
2023/06/15 07:47:33;;;;;;;13.15;7.88;;;;;;;21.84;58.02;101303.56;4955842;29;20653;-46
2023/06/15 07:50:00;;;;;;;10.73;8.50;;;;;;;22.21;57.34;101314.28;4953788;29;20047;-48
2023/06/15 07:52:27;;;;;;;15.32;8.02;;;;;;;22.60;56.39;101305.59;4955655;29;20047;-46
2023/06/15 07:54:54;;;;;;;15.18;7.90;;;;;;;23.05;55.53;101326.28;4955882;29;20062;-48
2023/06/15 07:57:21;;;;;;;12.25;7.13;;;;;;;23.59;54.65;101321.72;4955564;29;20062;-46
2023/06/15 07:59:48;;;;;;;8.80;5.53;;;;;;;24.17;53.49;101323.50;4955901;29;20383;-49
2023/06/15 08:02:15;;;;;;;10.50;5.90;;;;;;;24.73;51.82;101322.66;4955438;29;20070;-49
2023/06/15 08:04:41;;;;;;;13.57;6.03;;;;;;;25.24;50.30;101326.31;4954723;29;20071;-46
2023/06/15 08:07:08;;;;;;;10.25;5.78;;;;;;;25.63;48.90;101326.44;4955630;29;20051;-49
2023/06/15 08:09:35;;;;;;;8.70;4.97;;;;;;;25.99;47.93;101323.69;4955771;29;20142;-46
2023/06/15 08:12:02;;;;;;;10.60;5.03;;;;;;;26.33;46.73;101332.72;4937229;29;20051;-47
2023/06/15 08:14:29;;;;;;;8.25;4.72;;;;;;;26.65;45.36;101336.88;4955158;29;20083;-47
2023/06/15 08:16:56;;;;;;;9.52;4.15;;;;;;;27.00;43.67;101342.53;4955607;29;20379;-48
2023/06/15 08:19:24;;;;;;;7.80;4.53;;;;;;;27.06;43.14;101337.91;4951471;29;20501;-47
2023/06/15 08:21:50;;;;;;;8.20;4.03;;;;;;;27.04;42.59;101331.88;4954351;29;20051;-47
2023/06/15 08:24:17;;;;;;;12.75;5.05;;;;;;;27.17;41.63;101335.59;4955265;28;20111;-47
2023/06/15 08:26:44;;;;;;;10.18;5.25;;;;;;;27.51;40.43;101328.66;4955413;29;20150;-47
2023/06/15 08:29:11;;;;;;;8.55;4.47;;;;;;;27.82;39.55;101341.22;4950378;29;20058;-46
2023/06/15 08:31:50;;;;;;;6.35;4.82;;;;;;;28.05;38.69;101340.16;4949901;29;20059;-47
2023/06/15 08:34:18;;;;;;;7.43;4.60;;;;;;;28.27;38.36;101336.25;4955100;28;20039;-47
2023/06/15 08:36:45;;;;;;;6.80;4.88;;;;;;;28.60;37.97;101339.69;4954113;29;20059;-46
2023/06/15 08:39:12;;;;;;;5.85;3.53;;;;;;;28.88;37.94;101332.31;4949944;28;20054;-47
2023/06/15 08:41:39;;;;;;;7.85;4.80;;;;;;;28.98;37.17;101336.88;4951432;28;20489;-47
2023/06/15 08:44:07;;;;;;;5.78;4.10;;;;;;;29.04;36.43;101335.03;4953106;28;20047;-47
2023/06/15 08:46:34;;;;;;;5.25;4.47;;;;;;;29.07;36.42;101334.09;4954893;29;20075;-48
2023/06/15 08:49:02;;;;;;;4.43;3.95;;;;;;;28.98;36.18;101325.47;4955143;29;20047;-47
2023/06/15 08:51:29;;;;;;;7.63;5.07;;;;;;;28.87;36.01;101330.72;4954302;29;20058;-48
2023/06/15 08:53:57;;;;;;;15.30;5.63;;;;;;;28.80;36.29;101337.47;4954763;29;20043;-47
2023/06/15 08:56:26;;;;;;;11.32;5.45;;;;;;;28.91;36.13;101337.13;4952402;29;20062;-47
2023/06/15 08:58:53;;;;;;;5.43;4.20;;;;;;;29.02;35.60;101331.06;4954793;29;20263;-47
2023/06/15 09:01:22;;;;;;;10.88;3.80;;;;;;;29.18;35.68;101328.84;4954378;29;20405;-47
2023/06/15 09:03:51;;;;;;;11.25;4.85;;;;;;;29.57;34.93;101333.22;4954462;29;20043;-47
2023/06/15 09:06:20;;;;;;;5.93;4.30;;;;;;;29.64;34.91;101326.47;4933762;29;20055;-47
2023/06/15 09:08:48;;;;;;;7.28;4.20;;;;;;;29.48;34.91;101327.44;4947097;29;20051;-47
2023/06/15 09:11:17;;;;;;;7.78;4.57;;;;;;;29.44;34.80;101316.13;4953094;29;20051;-46
2023/06/15 09:13:45;;;;;;;7.30;3.85;;;;;;;29.61;35.29;101327.38;4953185;28;20059;-47
2023/06/15 09:16:12;;;;;;;10.63;3.83;;;;;;;29.90;35.14;101327.97;4951008;28;20093;-47
2023/06/15 09:18:46;;;;;;;7.00;4.32;;;;;;;30.01;34.74;101322.66;4954174;29;20050;-47
2023/06/15 09:21:15;;;;;;;5.03;4.38;;;;;;;30.27;34.86;101324.09;4954249;29;20043;-47
2023/06/15 09:23:46;;;;;;;5.47;4.07;;;;;;;30.45;35.13;101324.22;4953691;29;20091;-49
2023/06/15 09:26:23;;;;;;;;;;;;;;;30.30;35.98;101322.38;4953563;29;20125;-46
2023/06/15 09:28:52;;;;;;;8.52;4.05;;;;;;;30.45;36.11;101329.94;4952392;28;19922;-48
2023/06/15 09:31:36;;;;;;;5.32;3.88;;;;;;;30.46;36.31;101325.81;4953081;29;20413;-46
2023/06/15 09:34:05;;;;;;;8.95;4.03;;;;;;;30.60;36.25;101322.41;4953235;28;20094;-47
2023/06/15 09:36:49;;;;;;;5.38;3.78;;;;;;;30.63;35.84;101318.59;4953035;28;20047;-47
2023/06/15 09:39:24;;;;;;;7.20;4.10;;;;;;;30.22;36.63;101321.03;4953731;29;20461;-51
2023/06/15 09:41:58;;;;;;;7.47;3.60;;;;;;;29.92;37.35;101325.44;4953668;29;20043;-47
2023/06/15 09:44:26;;;;;;;12.27;4.32;;;;;;;29.56;38.05;101323.88;4954028;29;20156;-46
2023/06/15 09:46:57;;;;;;;5.63;3.50;;;;;;;29.69;38.45;101329.53;4952739;28;20043;-49
2023/06/15 09:49:25;;;;;;;4.60;3.10;;;;;;;29.92;38.26;101334.00;4953772;29;20058;-46
2023/06/15 09:51:54;;;;;;;7.60;3.28;;;;;;;30.17;37.97;101331.81;4953728;29;20035;-47
2023/06/15 09:54:23;;;;;;;7.07;3.63;;;;;;;30.37;37.86;101337.19;4953280;29;20055;-47
2023/06/15 09:56:52;;;;;;;6.20;3.58;;;;;;;30.47;37.75;101332.34;4953953;29;20043;-47
2023/06/15 09:59:21;;;;;;;12.90;3.78;;;;;;;30.60;37.94;101330.97;4952812;28;20133;-47
2023/06/15 10:01:49;;;;;;;6.70;3.25;;;;;;;30.53;37.21;101342.69;4952483;28;20106;-47
2023/06/15 10:04:19;;;;;;;6.40;3.53;;;;;;;30.34;37.21;101337.31;4935312;29;20043;-46
2023/06/15 10:06:51;;;;;;;7.30;3.38;;;;;;;30.42;37.03;101341.53;4951590;28;20132;-46
2023/06/15 10:09:31;;;;;;;7.05;3.92;;;;;;;30.25;37.26;101343.78;4950155;29;20474;-47
2023/06/15 10:12:07;;;;;;;5.75;3.70;;;;;;;30.06;37.32;101337.13;4953628;29;20053;-48
2023/06/15 10:14:37;;;;;;;12.90;5.18;;;;;;;29.91;37.62;101341.00;4953152;29;20134;-47
2023/06/15 10:17:06;;;;;;;6.80;4.20;;;;;;;29.77;37.87;101344.31;4953277;29;20051;-49
2023/06/15 10:19:42;;;;;;;8.48;3.60;;;;;;;29.63;38.35;101327.75;4953367;29;20047;-47
2023/06/15 10:22:17;;;;;;;3.30;2.83;;;;;;;29.57;38.40;101339.72;4952359;28;20043;-47
2023/06/15 10:24:45;;;;;;;5.50;3.75;;;;;;;29.54;38.46;101334.16;4953607;29;20490;-49
2023/06/15 10:27:14;;;;;;;10.48;3.72;;;;;;;29.27;38.94;101342.44;4953180;28;20095;-47
2023/06/15 10:29:50;;;;;;;7.47;3.58;;;;;;;28.99;39.08;101347.03;4953218;29;20078;-47
2023/06/15 10:32:29;;;;;;;8.60;3.58;;;;;;;28.73;39.34;101343.38;4952995;29;20437;-47
2023/06/15 10:35:11;;;;;;;7.47;4.50;;;;;;;28.60;39.81;101348.25;4952771;29;20051;-46
2023/06/15 10:37:48;;;;;;;5.28;3.58;;;;;;;28.47;40.07;101346.63;4951406;28;20054;-48
2023/06/15 10:40:28;;;;;;;7.55;3.85;;;;;;;28.21;39.68;101348.63;4951512;29;20379;-46
2023/06/15 10:42:57;;;;;;;5.30;4.00;;;;;;;27.99;40.04;101351.28;4953227;29;20082;-50
2023/06/15 10:45:32;;;;;;;8.32;3.85;;;;;;;27.88;40.39;101345.06;4952129;28;20055;-46
2023/06/15 10:48:03;;;;;;;5.88;3.42;;;;;;;27.81;40.67;101348.13;4952769;29;20071;-46
2023/06/15 10:50:53;;;;;;;4.80;4.00;;;;;;;27.73;40.48;101343.88;4952980;29;20039;-46
2023/06/15 10:53:25;;;;;;;7.30;3.20;;;;;;;27.45;41.01;101344.66;4952756;29;20053;-46
2023/06/15 10:55:56;;;;;;;5.75;3.72;;;;;;;27.36;40.84;101338.78;4951930;29;20051;-46
2023/06/15 10:58:27;;;;;;;7.80;3.05;;;;;;;27.25;41.34;101341.09;4953660;28;20493;-46
2023/06/15 11:01:11;;;;;;;6.03;3.20;;;;;;;27.26;40.96;101345.53;4956790;29;20386;-46
2023/06/15 11:03:40;;;;;;;5.07;3.38;;;;;;;27.11;41.01;101340.22;4955856;28;20147;-46
2023/06/15 11:06:14;;;;;;;9.90;4.18;;;;;;;26.99;41.19;101345.81;4956308;29;20047;-47
2023/06/15 11:09:03;;;;;;;7.40;3.55;;;;;;;26.88;41.54;101346.06;4956609;29;20158;-46
2023/06/15 11:11:33;;;;;;;7.88;3.60;;;;;;;26.89;41.64;101353.38;4956168;29;20083;-47
2023/06/15 11:14:05;;;;;;;7.10;4.60;;;;;;;26.94;41.49;101352.84;4951547;29;20093;-46
2023/06/15 11:16:36;;;;;;;8.90;3.60;;;;;;;26.85;41.71;101352.63;4954700;28;20047;-47
2023/06/15 11:19:12;;;;;;;8.18;4.13;;;;;;;26.70;41.43;101350.53;4956309;29;20043;-48
2023/06/15 11:21:40;;;;;;;8.88;4.00;;;;;;;26.47;41.21;101354.31;4956914;29;20043;-46
2023/06/15 11:24:07;;;;;;;6.97;4.47;;;;;;;26.22;41.37;101357.69;4956350;29;20047;-47
2023/06/15 11:26:40;;;;;;;6.35;3.28;;;;;;;26.15;41.44;101355.00;4956374;29;20043;-46
2023/06/15 11:29:09;;;;;;;4.88;3.17;;;;;;;26.03;41.36;101347.91;4955243;29;20043;-46